sensor_id;sensor_type;location;lat;lon;timestamp;P1;durP1;ratioP1;P2;durP2;ratioP2
37781;SDS011;23621;50.878;4.584;2024-03-29T00:00:55;3.25;;;1.10;;
37781;SDS011;23621;50.878;4.584;2024-03-29T00:02:56;2.53;;;1.58;;
37781;SDS011;23621;50.878;4.584;2024-03-29T00:04:57;2.90;;;1.25;;
37781;SDS011;23621;50.878;4.584;2024-03-29T00:06:57;3.80;;;1.63;;
37781;SDS011;23621;50.878;4.584;2024-03-29T00:08:58;3.53;;;1.50;;
37781;SDS011;23621;50.878;4.584;2024-03-29T00:10:59;4.00;;;1.55;;
37781;SDS011;23621;50.878;4.584;2024-03-29T00:13:00;4.53;;;1.52;;
37781;SDS011;23621;50.878;4.584;2024-03-29T00:15:01;4.65;;;1.30;;
37781;SDS011;23621;50.878;4.584;2024-03-29T00:17:02;4.22;;;1.50;;
37781;SDS011;23621;50.878;4.584;2024-03-29T00:19:04;3.78;;;1.80;;
37781;SDS011;23621;50.878;4.584;2024-03-29T00:21:05;2.85;;;1.48;;
37781;SDS011;23621;50.878;4.584;2024-03-29T00:23:06;4.43;;;1.42;;
37781;SDS011;23621;50.878;4.584;2024-03-29T00:25:07;2.40;;;1.30;;
37781;SDS011;23621;50.878;4.584;2024-03-29T00:27:08;4.75;;;1.90;;
37781;SDS011;23621;50.878;4.584;2024-03-29T00:29:08;2.75;;;1.40;;
37781;SDS011;23621;50.878;4.584;2024-03-29T00:31:09;3.35;;;1.50;;
37781;SDS011;23621;50.878;4.584;2024-03-29T00:33:10;2.92;;;1.65;;
37781;SDS011;23621;50.878;4.584;2024-03-29T00:35:10;4.47;;;1.65;;
37781;SDS011;23621;50.878;4.584;2024-03-29T00:37:11;4.03;;;1.70;;
37781;SDS011;23621;50.878;4.584;2024-03-29T00:39:12;4.35;;;1.70;;
37781;SDS011;23621;50.878;4.584;2024-03-29T00:41:13;4.00;;;1.60;;
37781;SDS011;23621;50.878;4.584;2024-03-29T00:43:14;3.95;;;1.90;;
37781;SDS011;23621;50.878;4.584;2024-03-29T00:45:15;3.65;;;1.58;;
37781;SDS011;23621;50.878;4.584;2024-03-29T00:47:15;2.22;;;1.45;;
37781;SDS011;23621;50.878;4.584;2024-03-29T00:49:16;3.00;;;1.63;;
37781;SDS011;23621;50.878;4.584;2024-03-29T00:51:17;3.17;;;1.73;;
37781;SDS011;23621;50.878;4.584;2024-03-29T00:53:17;3.38;;;1.73;;
37781;SDS011;23621;50.878;4.584;2024-03-29T00:55:18;3.83;;;1.90;;
37781;SDS011;23621;50.878;4.584;2024-03-29T00:57:19;3.35;;;1.50;;
37781;SDS011;23621;50.878;4.584;2024-03-29T00:59:20;4.50;;;1.50;;
37781;SDS011;23621;50.878;4.584;2024-03-29T01:01:21;4.10;;;1.80;;
37781;SDS011;23621;50.878;4.584;2024-03-29T01:03:22;3.28;;;1.50;;
37781;SDS011;23621;50.878;4.584;2024-03-29T01:05:23;1.88;;;1.50;;
37781;SDS011;23621;50.878;4.584;2024-03-29T01:07:24;2.95;;;1.60;;
37781;SDS011;23621;50.878;4.584;2024-03-29T01:09:25;3.83;;;1.50;;
37781;SDS011;23621;50.878;4.584;2024-03-29T01:11:26;4.00;;;1.88;;
37781;SDS011;23621;50.878;4.584;2024-03-29T01:13:27;4.57;;;1.60;;
37781;SDS011;23621;50.878;4.584;2024-03-29T01:15:27;3.92;;;1.50;;
37781;SDS011;23621;50.878;4.584;2024-03-29T01:17:28;4.28;;;1.70;;
37781;SDS011;23621;50.878;4.584;2024-03-29T01:19:29;3.58;;;1.45;;
37781;SDS011;23621;50.878;4.584;2024-03-29T01:21:30;1.70;;;1.20;;
37781;SDS011;23621;50.878;4.584;2024-03-29T01:23:30;3.60;;;1.27;;
37781;SDS011;23621;50.878;4.584;2024-03-29T01:25:32;3.00;;;1.40;;
37781;SDS011;23621;50.878;4.584;2024-03-29T01:27:33;3.42;;;1.58;;
37781;SDS011;23621;50.878;4.584;2024-03-29T01:29:34;2.47;;;1.35;;
37781;SDS011;23621;50.878;4.584;2024-03-29T01:31:35;1.90;;;1.20;;
37781;SDS011;23621;50.878;4.584;2024-03-29T01:33:36;2.85;;;1.20;;
37781;SDS011;23621;50.878;4.584;2024-03-29T01:35:37;3.35;;;1.30;;
37781;SDS011;23621;50.878;4.584;2024-03-29T01:37:38;3.17;;;1.50;;
37781;SDS011;23621;50.878;4.584;2024-03-29T01:39:39;2.85;;;1.35;;
37781;SDS011;23621;50.878;4.584;2024-03-29T01:41:39;2.92;;;1.30;;
37781;SDS011;23621;50.878;4.584;2024-03-29T01:43:41;3.13;;;1.27;;
37781;SDS011;23621;50.878;4.584;2024-03-29T01:45:41;1.65;;;1.10;;
37781;SDS011;23621;50.878;4.584;2024-03-29T01:47:43;2.78;;;1.30;;
37781;SDS011;23621;50.878;4.584;2024-03-29T01:49:44;2.45;;;1.42;;
37781;SDS011;23621;50.878;4.584;2024-03-29T01:51:45;3.38;;;1.10;;
37781;SDS011;23621;50.878;4.584;2024-03-29T01:53:46;3.13;;;1.42;;
37781;SDS011;23621;50.878;4.584;2024-03-29T01:55:48;2.50;;;1.02;;
37781;SDS011;23621;50.878;4.584;2024-03-29T01:57:49;3.58;;;1.52;;
37781;SDS011;23621;50.878;4.584;2024-03-29T01:59:50;2.45;;;1.17;;
37781;SDS011;23621;50.878;4.584;2024-03-29T02:01:51;2.40;;;1.02;;
37781;SDS011;23621;50.878;4.584;2024-03-29T02:03:53;2.10;;;1.02;;
37781;SDS011;23621;50.878;4.584;2024-03-29T02:05:55;2.08;;;1.13;;
37781;SDS011;23621;50.878;4.584;2024-03-29T02:07:57;2.92;;;1.40;;
37781;SDS011;23621;50.878;4.584;2024-03-29T02:09:59;2.38;;;1.08;;
37781;SDS011;23621;50.878;4.584;2024-03-29T02:12:00;2.08;;;1.00;;
37781;SDS011;23621;50.878;4.584;2024-03-29T02:14:01;1.95;;;1.13;;
37781;SDS011;23621;50.878;4.584;2024-03-29T02:16:02;1.50;;;1.00;;
37781;SDS011;23621;50.878;4.584;2024-03-29T02:18:02;1.13;;;1.00;;
37781;SDS011;23621;50.878;4.584;2024-03-29T02:20:03;3.25;;;1.30;;
37781;SDS011;23621;50.878;4.584;2024-03-29T02:22:05;0.82;;;0.82;;
37781;SDS011;23621;50.878;4.584;2024-03-29T02:24:09;2.50;;;1.13;;
37781;SDS011;23621;50.878;4.584;2024-03-29T02:26:11;3.00;;;1.30;;
37781;SDS011;23621;50.878;4.584;2024-03-29T02:28:12;1.83;;;1.00;;
37781;SDS011;23621;50.878;4.584;2024-03-29T02:30:16;3.00;;;1.20;;
37781;SDS011;23621;50.878;4.584;2024-03-29T02:32:17;1.98;;;1.00;;
37781;SDS011;23621;50.878;4.584;2024-03-29T02:34:18;2.05;;;1.10;;
37781;SDS011;23621;50.878;4.584;2024-03-29T02:36:19;2.05;;;0.95;;
37781;SDS011;23621;50.878;4.584;2024-03-29T02:38:20;1.60;;;1.15;;
37781;SDS011;23621;50.878;4.584;2024-03-29T02:40:20;2.83;;;1.00;;
37781;SDS011;23621;50.878;4.584;2024-03-29T02:42:21;1.70;;;1.08;;
37781;SDS011;23621;50.878;4.584;2024-03-29T02:44:22;1.75;;;1.10;;
37781;SDS011;23621;50.878;4.584;2024-03-29T02:46:23;1.70;;;1.23;;
37781;SDS011;23621;50.878;4.584;2024-03-29T02:48:24;2.35;;;0.93;;
37781;SDS011;23621;50.878;4.584;2024-03-29T02:50:24;1.63;;;1.20;;
37781;SDS011;23621;50.878;4.584;2024-03-29T02:52:25;1.92;;;1.00;;
37781;SDS011;23621;50.878;4.584;2024-03-29T02:54:26;2.53;;;1.20;;
37781;SDS011;23621;50.878;4.584;2024-03-29T02:56:27;1.60;;;1.20;;
37781;SDS011;23621;50.878;4.584;2024-03-29T02:58:27;2.25;;;1.17;;
37781;SDS011;23621;50.878;4.584;2024-03-29T03:00:28;1.92;;;0.90;;
37781;SDS011;23621;50.878;4.584;2024-03-29T03:02:29;1.85;;;1.20;;
37781;SDS011;23621;50.878;4.584;2024-03-29T03:04:30;2.33;;;1.20;;
37781;SDS011;23621;50.878;4.584;2024-03-29T03:06:30;1.95;;;1.30;;
37781;SDS011;23621;50.878;4.584;2024-03-29T03:08:31;3.30;;;1.40;;
37781;SDS011;23621;50.878;4.584;2024-03-29T03:10:50;3.85;;;1.60;;
37781;SDS011;23621;50.878;4.584;2024-03-29T03:13:00;2.67;;;1.42;;
37781;SDS011;23621;50.878;4.584;2024-03-29T03:15:01;3.53;;;1.52;;
37781;SDS011;23621;50.878;4.584;2024-03-29T03:17:02;3.53;;;1.40;;
37781;SDS011;23621;50.878;4.584;2024-03-29T03:19:03;2.78;;;1.27;;
37781;SDS011;23621;50.878;4.584;2024-03-29T03:21:03;3.38;;;1.50;;
37781;SDS011;23621;50.878;4.584;2024-03-29T03:23:05;3.20;;;1.60;;
37781;SDS011;23621;50.878;4.584;2024-03-29T03:25:06;3.47;;;1.67;;
37781;SDS011;23621;50.878;4.584;2024-03-29T03:27:07;2.63;;;1.45;;
37781;SDS011;23621;50.878;4.584;2024-03-29T03:29:07;2.92;;;1.33;;
37781;SDS011;23621;50.878;4.584;2024-03-29T03:31:10;3.08;;;1.33;;
37781;SDS011;23621;50.878;4.584;2024-03-29T03:33:10;4.53;;;1.70;;
37781;SDS011;23621;50.878;4.584;2024-03-29T03:35:11;3.58;;;1.67;;
37781;SDS011;23621;50.878;4.584;2024-03-29T03:37:12;2.72;;;1.70;;
37781;SDS011;23621;50.878;4.584;2024-03-29T03:39:13;4.22;;;1.77;;
37781;SDS011;23621;50.878;4.584;2024-03-29T03:41:13;2.10;;;1.65;;
37781;SDS011;23621;50.878;4.584;2024-03-29T03:43:16;2.60;;;1.60;;
37781;SDS011;23621;50.878;4.584;2024-03-29T03:45:16;2.97;;;1.58;;
37781;SDS011;23621;50.878;4.584;2024-03-29T03:47:17;5.05;;;1.63;;
37781;SDS011;23621;50.878;4.584;2024-03-29T03:49:18;4.25;;;1.67;;
37781;SDS011;23621;50.878;4.584;2024-03-29T03:51:18;3.88;;;1.50;;
37781;SDS011;23621;50.878;4.584;2024-03-29T03:53:19;1.83;;;1.30;;
37781;SDS011;23621;50.878;4.584;2024-03-29T03:55:20;3.20;;;1.40;;
37781;SDS011;23621;50.878;4.584;2024-03-29T03:57:20;2.60;;;1.40;;
37781;SDS011;23621;50.878;4.584;2024-03-29T03:59:21;2.75;;;1.60;;
37781;SDS011;23621;50.878;4.584;2024-03-29T04:01:22;2.30;;;1.33;;
37781;SDS011;23621;50.878;4.584;2024-03-29T04:03:22;2.95;;;1.50;;
37781;SDS011;23621;50.878;4.584;2024-03-29T04:05:23;3.65;;;1.83;;
37781;SDS011;23621;50.878;4.584;2024-03-29T04:07:25;3.65;;;1.60;;
37781;SDS011;23621;50.878;4.584;2024-03-29T04:09:25;3.30;;;1.55;;
37781;SDS011;23621;50.878;4.584;2024-03-29T04:11:26;3.38;;;1.70;;
37781;SDS011;23621;50.878;4.584;2024-03-29T04:13:27;2.72;;;1.70;;
37781;SDS011;23621;50.878;4.584;2024-03-29T04:15:28;1.95;;;1.50;;
37781;SDS011;23621;50.878;4.584;2024-03-29T04:17:31;5.03;;;1.60;;
37781;SDS011;23621;50.878;4.584;2024-03-29T04:19:32;3.13;;;1.50;;
37781;SDS011;23621;50.878;4.584;2024-03-29T04:21:33;2.55;;;1.48;;
37781;SDS011;23621;50.878;4.584;2024-03-29T04:23:34;3.38;;;1.60;;
37781;SDS011;23621;50.878;4.584;2024-03-29T04:25:34;3.05;;;1.58;;
37781;SDS011;23621;50.878;4.584;2024-03-29T04:27:35;4.07;;;1.60;;
37781;SDS011;23621;50.878;4.584;2024-03-29T04:29:36;3.22;;;1.67;;
37781;SDS011;23621;50.878;4.584;2024-03-29T04:31:36;2.00;;;1.35;;
37781;SDS011;23621;50.878;4.584;2024-03-29T04:33:37;1.70;;;1.35;;
37781;SDS011;23621;50.878;4.584;2024-03-29T04:35:38;3.03;;;1.30;;
37781;SDS011;23621;50.878;4.584;2024-03-29T04:37:39;3.50;;;1.40;;
37781;SDS011;23621;50.878;4.584;2024-03-29T04:39:39;3.65;;;1.55;;
37781;SDS011;23621;50.878;4.584;2024-03-29T04:41:40;2.55;;;1.30;;
37781;SDS011;23621;50.878;4.584;2024-03-29T04:43:43;1.63;;;1.30;;
37781;SDS011;23621;50.878;4.584;2024-03-29T04:45:44;1.55;;;1.33;;
37781;SDS011;23621;50.878;4.584;2024-03-29T04:47:45;1.92;;;1.20;;
37781;SDS011;23621;50.878;4.584;2024-03-29T04:49:45;2.30;;;1.30;;
37781;SDS011;23621;50.878;4.584;2024-03-29T04:51:46;1.42;;;1.30;;
37781;SDS011;23621;50.878;4.584;2024-03-29T04:53:47;1.25;;;1.13;;
37781;SDS011;23621;50.878;4.584;2024-03-29T04:55:53;2.28;;;1.20;;
37781;SDS011;23621;50.878;4.584;2024-03-29T04:57:57;3.33;;;1.30;;
37781;SDS011;23621;50.878;4.584;2024-03-29T04:59:58;2.08;;;1.30;;
37781;SDS011;23621;50.878;4.584;2024-03-29T05:01:59;2.40;;;1.40;;
37781;SDS011;23621;50.878;4.584;2024-03-29T05:04:00;2.55;;;1.40;;
37781;SDS011;23621;50.878;4.584;2024-03-29T05:06:00;1.40;;;1.30;;
37781;SDS011;23621;50.878;4.584;2024-03-29T05:08:01;2.75;;;1.50;;
37781;SDS011;23621;50.878;4.584;2024-03-29T05:10:02;1.95;;;1.35;;
37781;SDS011;23621;50.878;4.584;2024-03-29T05:12:06;2.90;;;1.30;;
37781;SDS011;23621;50.878;4.584;2024-03-29T05:14:07;4.55;;;1.55;;
37781;SDS011;23621;50.878;4.584;2024-03-29T05:16:10;2.63;;;1.50;;
37781;SDS011;23621;50.878;4.584;2024-03-29T05:18:11;3.63;;;1.50;;
37781;SDS011;23621;50.878;4.584;2024-03-29T05:20:11;2.55;;;1.55;;
37781;SDS011;23621;50.878;4.584;2024-03-29T05:22:12;3.45;;;1.60;;
37781;SDS011;23621;50.878;4.584;2024-03-29T05:24:13;3.28;;;1.60;;
37781;SDS011;23621;50.878;4.584;2024-03-29T05:26:14;3.55;;;1.40;;
37781;SDS011;23621;50.878;4.584;2024-03-29T05:28:14;2.85;;;1.30;;
37781;SDS011;23621;50.878;4.584;2024-03-29T05:30:15;2.25;;;1.40;;
37781;SDS011;23621;50.878;4.584;2024-03-29T05:32:16;2.35;;;1.45;;
37781;SDS011;23621;50.878;4.584;2024-03-29T05:34:17;2.45;;;1.48;;
37781;SDS011;23621;50.878;4.584;2024-03-29T05:36:17;2.03;;;1.42;;
37781;SDS011;23621;50.878;4.584;2024-03-29T05:38:19;3.20;;;1.58;;
37781;SDS011;23621;50.878;4.584;2024-03-29T05:40:19;1.70;;;1.50;;
37781;SDS011;23621;50.878;4.584;2024-03-29T05:42:25;2.15;;;1.73;;
37781;SDS011;23621;50.878;4.584;2024-03-29T05:44:26;2.47;;;1.60;;
37781;SDS011;23621;50.878;4.584;2024-03-29T05:46:27;2.70;;;1.60;;
37781;SDS011;23621;50.878;4.584;2024-03-29T05:48:28;3.50;;;1.73;;
37781;SDS011;23621;50.878;4.584;2024-03-29T05:50:29;2.20;;;2.00;;
37781;SDS011;23621;50.878;4.584;2024-03-29T05:52:30;2.20;;;1.85;;
37781;SDS011;23621;50.878;4.584;2024-03-29T05:54:31;3.63;;;1.80;;
37781;SDS011;23621;50.878;4.584;2024-03-29T05:56:31;2.95;;;2.00;;
37781;SDS011;23621;50.878;4.584;2024-03-29T05:58:33;1.92;;;1.83;;
37781;SDS011;23621;50.878;4.584;2024-03-29T06:00:34;2.38;;;1.75;;
37781;SDS011;23621;50.878;4.584;2024-03-29T06:02:35;2.33;;;1.90;;
37781;SDS011;23621;50.878;4.584;2024-03-29T06:04:35;3.00;;;1.90;;
37781;SDS011;23621;50.878;4.584;2024-03-29T06:06:38;4.22;;;1.95;;
37781;SDS011;23621;50.878;4.584;2024-03-29T06:08:38;2.28;;;1.50;;
37781;SDS011;23621;50.878;4.584;2024-03-29T06:10:39;4.80;;;1.90;;
37781;SDS011;23621;50.878;4.584;2024-03-29T06:12:40;2.72;;;1.95;;
37781;SDS011;23621;50.878;4.584;2024-03-29T06:14:40;3.15;;;1.70;;
37781;SDS011;23621;50.878;4.584;2024-03-29T06:16:59;3.58;;;1.85;;
37781;SDS011;23621;50.878;4.584;2024-03-29T06:19:18;2.70;;;2.15;;
37781;SDS011;23621;50.878;4.584;2024-03-29T06:21:19;4.40;;;1.83;;
37781;SDS011;23621;50.878;4.584;2024-03-29T06:23:20;2.92;;;1.70;;
37781;SDS011;23621;50.878;4.584;2024-03-29T06:25:20;2.25;;;1.65;;
37781;SDS011;23621;50.878;4.584;2024-03-29T06:27:21;2.38;;;1.65;;
37781;SDS011;23621;50.878;4.584;2024-03-29T06:29:23;3.78;;;1.58;;
37781;SDS011;23621;50.878;4.584;2024-03-29T06:31:23;1.95;;;1.73;;
37781;SDS011;23621;50.878;4.584;2024-03-29T06:33:24;3.10;;;1.60;;
37781;SDS011;23621;50.878;4.584;2024-03-29T06:35:25;2.97;;;1.60;;
37781;SDS011;23621;50.878;4.584;2024-03-29T06:37:26;2.92;;;2.00;;
37781;SDS011;23621;50.878;4.584;2024-03-29T06:39:28;3.33;;;1.88;;
37781;SDS011;23621;50.878;4.584;2024-03-29T06:41:29;3.72;;;1.65;;
37781;SDS011;23621;50.878;4.584;2024-03-29T06:43:29;3.20;;;1.80;;
37781;SDS011;23621;50.878;4.584;2024-03-29T06:45:30;3.50;;;2.08;;
37781;SDS011;23621;50.878;4.584;2024-03-29T06:47:31;1.88;;;1.52;;
37781;SDS011;23621;50.878;4.584;2024-03-29T06:49:31;1.70;;;1.52;;
37781;SDS011;23621;50.878;4.584;2024-03-29T06:51:32;2.20;;;1.60;;
37781;SDS011;23621;50.878;4.584;2024-03-29T06:53:33;3.38;;;1.75;;
37781;SDS011;23621;50.878;4.584;2024-03-29T06:55:34;2.50;;;1.63;;
37781;SDS011;23621;50.878;4.584;2024-03-29T06:57:37;3.08;;;1.42;;
37781;SDS011;23621;50.878;4.584;2024-03-29T06:59:37;2.03;;;1.80;;
37781;SDS011;23621;50.878;4.584;2024-03-29T07:01:39;2.42;;;1.33;;
37781;SDS011;23621;50.878;4.584;2024-03-29T07:03:40;4.47;;;1.60;;
37781;SDS011;23621;50.878;4.584;2024-03-29T07:05:41;2.28;;;1.30;;
37781;SDS011;23621;50.878;4.584;2024-03-29T07:07:41;3.95;;;1.80;;
37781;SDS011;23621;50.878;4.584;2024-03-29T07:09:42;3.25;;;1.52;;
37781;SDS011;23621;50.878;4.584;2024-03-29T07:11:44;2.50;;;1.60;;
37781;SDS011;23621;50.878;4.584;2024-03-29T07:13:46;3.20;;;1.83;;
37781;SDS011;23621;50.878;4.584;2024-03-29T07:15:53;2.28;;;1.70;;
37781;SDS011;23621;50.878;4.584;2024-03-29T07:17:53;4.47;;;2.03;;
37781;SDS011;23621;50.878;4.584;2024-03-29T07:19:54;3.20;;;2.05;;
37781;SDS011;23621;50.878;4.584;2024-03-29T07:21:55;4.13;;;2.00;;
37781;SDS011;23621;50.878;4.584;2024-03-29T07:23:55;4.72;;;2.03;;
37781;SDS011;23621;50.878;4.584;2024-03-29T07:26:00;3.22;;;2.35;;
37781;SDS011;23621;50.878;4.584;2024-03-29T07:28:02;4.32;;;2.28;;
37781;SDS011;23621;50.878;4.584;2024-03-29T07:30:04;2.80;;;2.08;;
37781;SDS011;23621;50.878;4.584;2024-03-29T07:32:08;2.72;;;2.20;;
37781;SDS011;23621;50.878;4.584;2024-03-29T07:34:09;4.75;;;2.17;;
37781;SDS011;23621;50.878;4.584;2024-03-29T07:36:10;3.95;;;2.10;;
37781;SDS011;23621;50.878;4.584;2024-03-29T07:38:12;3.75;;;2.25;;
37781;SDS011;23621;50.878;4.584;2024-03-29T07:40:15;4.38;;;2.50;;
37781;SDS011;23621;50.878;4.584;2024-03-29T07:42:16;3.08;;;2.20;;
37781;SDS011;23621;50.878;4.584;2024-03-29T07:44:17;2.85;;;1.90;;
37781;SDS011;23621;50.878;4.584;2024-03-29T07:46:17;3.92;;;1.95;;
37781;SDS011;23621;50.878;4.584;2024-03-29T07:48:18;2.92;;;1.90;;
37781;SDS011;23621;50.878;4.584;2024-03-29T07:50:19;3.17;;;1.85;;
37781;SDS011;23621;50.878;4.584;2024-03-29T07:52:20;3.13;;;1.73;;
37781;SDS011;23621;50.878;4.584;2024-03-29T07:54:21;2.80;;;2.05;;
37781;SDS011;23621;50.878;4.584;2024-03-29T07:56:22;2.55;;;2.05;;
37781;SDS011;23621;50.878;4.584;2024-03-29T07:58:25;3.20;;;2.00;;
37781;SDS011;23621;50.878;4.584;2024-03-29T08:00:25;1.73;;;1.60;;
37781;SDS011;23621;50.878;4.584;2024-03-29T08:02:26;3.47;;;2.28;;
37781;SDS011;23621;50.878;4.584;2024-03-29T08:04:27;3.17;;;2.15;;
37781;SDS011;23621;50.878;4.584;2024-03-29T08:06:28;3.55;;;1.80;;
37781;SDS011;23621;50.878;4.584;2024-03-29T08:08:29;3.10;;;2.05;;
37781;SDS011;23621;50.878;4.584;2024-03-29T08:10:30;3.63;;;2.50;;
37781;SDS011;23621;50.878;4.584;2024-03-29T08:12:31;3.40;;;2.38;;
37781;SDS011;23621;50.878;4.584;2024-03-29T08:14:32;5.43;;;2.63;;
37781;SDS011;23621;50.878;4.584;2024-03-29T08:16:33;3.88;;;2.65;;
37781;SDS011;23621;50.878;4.584;2024-03-29T08:18:34;4.13;;;2.38;;
37781;SDS011;23621;50.878;4.584;2024-03-29T08:20:35;3.05;;;2.40;;
37781;SDS011;23621;50.878;4.584;2024-03-29T08:22:35;4.45;;;2.10;;
37781;SDS011;23621;50.878;4.584;2024-03-29T08:24:37;4.50;;;2.40;;
37781;SDS011;23621;50.878;4.584;2024-03-29T08:26:37;3.40;;;2.60;;
37781;SDS011;23621;50.878;4.584;2024-03-29T08:28:38;5.00;;;2.67;;
37781;SDS011;23621;50.878;4.584;2024-03-29T08:30:39;2.72;;;2.45;;
37781;SDS011;23621;50.878;4.584;2024-03-29T08:32:45;5.13;;;2.63;;
37781;SDS011;23621;50.878;4.584;2024-03-29T08:34:46;2.88;;;2.58;;
37781;SDS011;23621;50.878;4.584;2024-03-29T08:36:47;2.95;;;2.47;;
37781;SDS011;23621;50.878;4.584;2024-03-29T08:38:48;6.00;;;3.05;;
37781;SDS011;23621;50.878;4.584;2024-03-29T08:40:48;2.60;;;2.40;;
37781;SDS011;23621;50.878;4.584;2024-03-29T08:42:49;4.20;;;2.38;;
37781;SDS011;23621;50.878;4.584;2024-03-29T08:44:50;2.55;;;2.20;;
37781;SDS011;23621;50.878;4.584;2024-03-29T08:46:51;4.50;;;2.58;;
37781;SDS011;23621;50.878;4.584;2024-03-29T08:48:53;3.58;;;2.40;;
37781;SDS011;23621;50.878;4.584;2024-03-29T08:50:55;6.50;;;2.80;;
37781;SDS011;23621;50.878;4.584;2024-03-29T08:52:56;3.65;;;2.90;;
37781;SDS011;23621;50.878;4.584;2024-03-29T08:54:56;4.05;;;2.80;;
37781;SDS011;23621;50.878;4.584;2024-03-29T08:56:57;3.33;;;2.33;;
37781;SDS011;23621;50.878;4.584;2024-03-29T08:58:58;4.20;;;2.50;;
37781;SDS011;23621;50.878;4.584;2024-03-29T09:01:01;2.95;;;2.28;;
37781;SDS011;23621;50.878;4.584;2024-03-29T09:03:04;2.15;;;1.90;;
37781;SDS011;23621;50.878;4.584;2024-03-29T09:05:05;3.28;;;2.20;;
37781;SDS011;23621;50.878;4.584;2024-03-29T09:07:06;2.55;;;2.20;;
37781;SDS011;23621;50.878;4.584;2024-03-29T09:09:07;2.75;;;2.13;;
37781;SDS011;23621;50.878;4.584;2024-03-29T09:11:08;3.47;;;2.17;;
37781;SDS011;23621;50.878;4.584;2024-03-29T09:13:11;3.33;;;1.90;;
37781;SDS011;23621;50.878;4.584;2024-03-29T09:15:12;3.17;;;1.70;;
37781;SDS011;23621;50.878;4.584;2024-03-29T09:17:16;4.10;;;2.00;;
37781;SDS011;23621;50.878;4.584;2024-03-29T09:19:17;1.80;;;1.70;;
37781;SDS011;23621;50.878;4.584;2024-03-29T09:21:17;2.58;;;1.90;;
37781;SDS011;23621;50.878;4.584;2024-03-29T09:23:19;2.83;;;1.95;;
37781;SDS011;23621;50.878;4.584;2024-03-29T09:25:23;2.75;;;1.60;;
37781;SDS011;23621;50.878;4.584;2024-03-29T09:27:24;2.58;;;1.65;;
37781;SDS011;23621;50.878;4.584;2024-03-29T09:29:26;2.00;;;1.60;;
37781;SDS011;23621;50.878;4.584;2024-03-29T09:31:27;1.77;;;1.67;;
37781;SDS011;23621;50.878;4.584;2024-03-29T09:33:27;2.10;;;1.70;;
37781;SDS011;23621;50.878;4.584;2024-03-29T09:35:28;2.35;;;1.70;;
37781;SDS011;23621;50.878;4.584;2024-03-29T09:37:29;1.70;;;1.33;;
37781;SDS011;23621;50.878;4.584;2024-03-29T09:39:30;1.50;;;1.40;;
37781;SDS011;23621;50.878;4.584;2024-03-29T09:41:30;2.45;;;1.20;;
37781;SDS011;23621;50.878;4.584;2024-03-29T09:43:36;1.38;;;1.27;;
37781;SDS011;23621;50.878;4.584;2024-03-29T09:45:37;2.53;;;1.60;;
37781;SDS011;23621;50.878;4.584;2024-03-29T09:47:37;4.32;;;1.40;;
37781;SDS011;23621;50.878;4.584;2024-03-29T09:49:40;1.75;;;1.30;;
37781;SDS011;23621;50.878;4.584;2024-03-29T09:51:44;1.80;;;1.40;;
37781;SDS011;23621;50.878;4.584;2024-03-29T09:53:46;2.53;;;1.35;;
37781;SDS011;23621;50.878;4.584;2024-03-29T09:55:47;1.73;;;1.20;;
37781;SDS011;23621;50.878;4.584;2024-03-29T09:57:48;2.72;;;1.30;;
37781;SDS011;23621;50.878;4.584;2024-03-29T09:59:49;1.30;;;1.13;;
37781;SDS011;23621;50.878;4.584;2024-03-29T10:01:50;1.20;;;1.10;;
37781;SDS011;23621;50.878;4.584;2024-03-29T10:03:52;1.88;;;1.13;;
37781;SDS011;23621;50.878;4.584;2024-03-29T10:05:57;1.45;;;1.13;;
37781;SDS011;23621;50.878;4.584;2024-03-29T10:07:59;2.03;;;1.20;;
37781;SDS011;23621;50.878;4.584;2024-03-29T10:10:05;1.33;;;1.20;;
37781;SDS011;23621;50.878;4.584;2024-03-29T10:12:06;3.88;;;1.60;;
37781;SDS011;23621;50.878;4.584;2024-03-29T10:14:07;1.77;;;1.55;;
37781;SDS011;23621;50.878;4.584;2024-03-29T10:16:08;3.97;;;1.40;;
37781;SDS011;23621;50.878;4.584;2024-03-29T10:18:11;1.88;;;1.25;;
37781;SDS011;23621;50.878;4.584;2024-03-29T10:20:11;1.85;;;1.52;;
37781;SDS011;23621;50.878;4.584;2024-03-29T10:22:15;2.20;;;1.70;;
37781;SDS011;23621;50.878;4.584;2024-03-29T10:24:16;2.63;;;1.50;;
37781;SDS011;23621;50.878;4.584;2024-03-29T10:26:17;1.70;;;1.60;;
37781;SDS011;23621;50.878;4.584;2024-03-29T10:28:20;4.25;;;1.45;;
37781;SDS011;23621;50.878;4.584;2024-03-29T10:30:21;1.88;;;1.40;;
37781;SDS011;23621;50.878;4.584;2024-03-29T10:32:24;2.95;;;1.30;;
37781;SDS011;23621;50.878;4.584;2024-03-29T10:34:25;5.22;;;1.70;;
37781;SDS011;23621;50.878;4.584;2024-03-29T10:36:26;2.33;;;1.70;;
37781;SDS011;23621;50.878;4.584;2024-03-29T10:38:27;1.95;;;1.70;;
37781;SDS011;23621;50.878;4.584;2024-03-29T10:40:27;4.72;;;1.60;;
37781;SDS011;23621;50.878;4.584;2024-03-29T10:42:29;1.73;;;1.40;;
37781;SDS011;23621;50.878;4.584;2024-03-29T10:44:33;1.20;;;1.10;;
37781;SDS011;23621;50.878;4.584;2024-03-29T10:46:36;2.67;;;1.40;;
37781;SDS011;23621;50.878;4.584;2024-03-29T10:48:37;2.15;;;1.40;;
37781;SDS011;23621;50.878;4.584;2024-03-29T10:50:38;5.07;;;1.65;;
37781;SDS011;23621;50.878;4.584;2024-03-29T10:52:42;3.80;;;1.48;;
37781;SDS011;23621;50.878;4.584;2024-03-29T10:54:49;1.58;;;1.40;;
37781;SDS011;23621;50.878;4.584;2024-03-29T10:57:03;1.55;;;1.35;;
37781;SDS011;23621;50.878;4.584;2024-03-29T10:59:26;1.88;;;1.25;;
37781;SDS011;23621;50.878;4.584;2024-03-29T11:01:44;2.00;;;1.40;;
37781;SDS011;23621;50.878;4.584;2024-03-29T11:03:54;2.08;;;1.23;;
37781;SDS011;23621;50.878;4.584;2024-03-29T11:06:01;2.95;;;1.60;;
37781;SDS011;23621;50.878;4.584;2024-03-29T11:08:05;2.10;;;1.60;;
37781;SDS011;23621;50.878;4.584;2024-03-29T11:10:11;3.00;;;1.60;;
37781;SDS011;23621;50.878;4.584;2024-03-29T11:12:22;2.08;;;1.30;;
37781;SDS011;23621;50.878;4.584;2024-03-29T11:14:27;1.67;;;1.20;;
37781;SDS011;23621;50.878;4.584;2024-03-29T11:16:40;2.65;;;1.10;;
37781;SDS011;23621;50.878;4.584;2024-03-29T11:18:45;1.95;;;1.23;;
37781;SDS011;23621;50.878;4.584;2024-03-29T11:20:49;2.95;;;1.23;;
37781;SDS011;23621;50.878;4.584;2024-03-29T11:22:53;1.30;;;1.20;;
37781;SDS011;23621;50.878;4.584;2024-03-29T11:27:52;1.65;;;1.30;;
37781;SDS011;23621;50.878;4.584;2024-03-29T11:30:03;2.92;;;1.50;;
37781;SDS011;23621;50.878;4.584;2024-03-29T11:32:06;2.35;;;1.30;;
37781;SDS011;23621;50.878;4.584;2024-03-29T11:34:08;1.30;;;1.20;;
37781;SDS011;23621;50.878;4.584;2024-03-29T11:36:17;1.92;;;1.30;;
37781;SDS011;23621;50.878;4.584;2024-03-29T11:38:18;1.23;;;1.15;;
37781;SDS011;23621;50.878;4.584;2024-03-29T11:40:18;1.15;;;1.00;;
37781;SDS011;23621;50.878;4.584;2024-03-29T11:42:34;1.67;;;1.00;;
37781;SDS011;23621;50.878;4.584;2024-03-29T11:44:53;1.65;;;1.15;;
37781;SDS011;23621;50.878;4.584;2024-03-29T11:46:57;1.00;;;1.00;;
37781;SDS011;23621;50.878;4.584;2024-03-29T11:48:59;1.10;;;0.95;;
37781;SDS011;23621;50.878;4.584;2024-03-29T11:51:01;1.25;;;1.08;;
37781;SDS011;23621;50.878;4.584;2024-03-29T11:53:05;1.42;;;1.30;;
37781;SDS011;23621;50.878;4.584;2024-03-29T11:55:06;0.98;;;0.98;;
37781;SDS011;23621;50.878;4.584;2024-03-29T11:57:07;1.67;;;1.38;;
37781;SDS011;23621;50.878;4.584;2024-03-29T11:59:08;1.45;;;1.00;;
37781;SDS011;23621;50.878;4.584;2024-03-29T12:01:09;1.00;;;0.90;;
37781;SDS011;23621;50.878;4.584;2024-03-29T12:03:10;1.65;;;0.93;;
37781;SDS011;23621;50.878;4.584;2024-03-29T12:05:11;1.95;;;0.90;;
37781;SDS011;23621;50.878;4.584;2024-03-29T12:07:12;1.13;;;0.90;;
37781;SDS011;23621;50.878;4.584;2024-03-29T12:09:13;1.05;;;0.95;;
37781;SDS011;23621;50.878;4.584;2024-03-29T12:11:14;1.63;;;1.00;;
37781;SDS011;23621;50.878;4.584;2024-03-29T12:13:17;1.17;;;1.10;;
37781;SDS011;23621;50.878;4.584;2024-03-29T12:15:18;1.02;;;1.00;;
37781;SDS011;23621;50.878;4.584;2024-03-29T12:17:20;1.00;;;0.90;;